createdAt,value
2023-05-16T00:01:38.059Z,7.10
2023-05-16T00:06:33.986Z,6.72
2023-05-16T00:09:01.618Z,6.10
2023-05-16T00:11:29.618Z,5.70
2023-05-16T00:13:57.410Z,5.90
2023-05-16T00:16:26.089Z,6.00
2023-05-16T00:18:56.814Z,6.15
2023-05-16T00:21:25.277Z,6.57
2023-05-16T00:23:53.040Z,6.70
2023-05-16T00:26:21.087Z,6.78
2023-05-16T00:28:49.018Z,6.93
2023-05-16T00:31:17.074Z,6.22
2023-05-16T00:33:44.730Z,7.07
2023-05-16T00:36:14.074Z,6.80
2023-05-16T00:38:42.382Z,6.60
2023-05-16T00:41:10.052Z,7.05
2023-05-16T00:43:39.538Z,6.90
2023-05-16T00:46:07.680Z,6.45
2023-05-16T00:48:35.591Z,6.80
2023-05-16T00:51:04.155Z,6.97
2023-05-16T00:53:33.163Z,6.75
2023-05-16T00:56:01.046Z,7.00
2023-05-16T00:58:32.277Z,6.88
2023-05-16T01:01:00.045Z,6.95
2023-05-16T01:03:28.286Z,7.50
2023-05-16T01:05:57.667Z,7.68
2023-05-16T01:08:25.372Z,7.22
2023-05-16T01:11:03.820Z,7.03
2023-05-16T01:13:41.982Z,7.95
2023-05-16T01:16:17.733Z,7.55
2023-05-16T01:18:58.103Z,7.97
2023-05-16T01:21:40.475Z,8.43
2023-05-16T01:24:15.286Z,8.95
2023-05-16T01:26:45.581Z,8.95
2023-05-16T01:29:13.683Z,8.35
2023-05-16T01:31:41.801Z,8.90
2023-05-16T01:34:09.412Z,9.85
2023-05-16T01:36:45.690Z,9.98
2023-05-16T01:39:20.912Z,9.00
2023-05-16T01:41:56.793Z,10.27
2023-05-16T01:44:32.250Z,11.40
2023-05-16T01:47:04.143Z,12.48
2023-05-16T01:49:36.696Z,13.88
2023-05-16T01:52:10.285Z,14.93
2023-05-16T01:54:43.996Z,14.43
2023-05-16T01:57:15.148Z,14.38
2023-05-16T01:59:44.161Z,14.63
2023-05-16T02:02:12.048Z,14.15
2023-05-16T02:04:40.120Z,15.35
2023-05-16T02:07:07.815Z,13.73
2023-05-16T02:09:35.823Z,14.90
2023-05-16T02:12:04.494Z,15.05
2023-05-16T02:14:33.566Z,14.02
2023-05-16T02:17:01.673Z,14.68
2023-05-16T02:19:29.420Z,13.98
2023-05-16T02:21:57.516Z,14.52
2023-05-16T02:24:25.222Z,14.50
2023-05-16T02:26:53.105Z,14.38
2023-05-16T02:29:20.857Z,14.00
2023-05-16T02:31:50.165Z,14.73
2023-05-16T02:34:17.817Z,14.13
2023-05-16T02:36:45.704Z,14.40
2023-05-16T02:39:13.351Z,13.93
2023-05-16T02:41:41.427Z,14.27
2023-05-16T02:44:09.503Z,14.02
2023-05-16T02:46:37.361Z,14.05
2023-05-16T02:49:06.473Z,14.10
2023-05-16T02:51:34.372Z,13.23
2023-05-16T02:54:02.085Z,13.20
2023-05-16T02:56:30.135Z,13.25
2023-05-16T02:58:57.769Z,12.63
2023-05-16T03:01:25.494Z,12.93
2023-05-16T03:03:53.730Z,12.52
2023-05-16T03:06:22.976Z,13.20
2023-05-16T03:08:50.965Z,13.02
2023-05-16T03:11:20.761Z,13.25
2023-05-16T03:13:48.502Z,12.18
2023-05-16T03:16:16.727Z,12.85
2023-05-16T03:18:44.517Z,12.73
2023-05-16T03:21:12.842Z,12.27
2023-05-16T03:23:41.863Z,13.40
2023-05-16T03:26:09.854Z,13.45
2023-05-16T03:28:38.447Z,12.45
2023-05-16T03:31:06.299Z,12.65
2023-05-16T03:33:34.316Z,13.07
2023-05-16T03:36:02.128Z,14.52
2023-05-16T03:38:30.029Z,13.25
2023-05-16T03:41:00.293Z,13.38
2023-05-16T03:43:28.347Z,13.93
2023-05-16T03:45:56.109Z,13.57
2023-05-16T03:48:23.910Z,13.90
2023-05-16T03:50:52.579Z,14.13
2023-05-16T03:53:20.234Z,13.57
2023-05-16T03:55:48.965Z,13.68
2023-05-16T03:58:18.248Z,14.40
2023-05-16T04:00:46.782Z,13.23
2023-05-16T04:03:14.956Z,13.98
2023-05-16T04:05:43.194Z,14.30
2023-05-16T04:08:11.487Z,15.00
2023-05-16T04:10:39.201Z,30.92
2023-05-16T04:13:06.810Z,14.82
2023-05-16T04:15:36.323Z,13.65
2023-05-16T04:18:04.989Z,14.35
2023-05-16T04:20:33.294Z,13.82
2023-05-16T04:23:02.179Z,14.82
2023-05-16T04:25:30.359Z,14.23
2023-05-16T04:27:58.290Z,13.90
2023-05-16T04:30:26.569Z,15.18
2023-05-16T04:32:57.265Z,14.57
2023-05-16T04:35:25.403Z,13.98
2023-05-16T04:37:53.325Z,15.82
2023-05-16T04:40:21.058Z,14.57
2023-05-16T04:42:49.745Z,14.95
2023-05-16T04:45:17.923Z,14.13
2023-05-16T04:47:45.617Z,14.32
2023-05-16T04:50:16.228Z,14.93
2023-05-16T04:55:12.693Z,15.25
2023-05-16T04:57:40.410Z,15.88
2023-05-16T05:00:10.265Z,15.52
2023-05-16T05:02:39.169Z,15.18
2023-05-16T05:05:08.691Z,15.15
2023-05-16T05:07:37.862Z,15.20
2023-05-16T05:10:06.887Z,15.73
2023-05-16T05:12:34.613Z,16.70
2023-05-16T05:15:02.355Z,17.30
2023-05-16T05:17:30.539Z,17.00
2023-05-16T05:19:58.820Z,17.83
2023-05-16T05:22:28.784Z,17.33
2023-05-16T05:24:58.039Z,17.27
2023-05-16T05:27:26.155Z,17.25
2023-05-16T05:29:54.133Z,17.02
2023-05-16T05:32:21.763Z,15.82
2023-05-16T05:34:49.781Z,16.77
2023-05-16T05:37:17.472Z,15.95
2023-05-16T05:39:45.237Z,15.95
2023-05-16T05:42:16.786Z,15.52
2023-05-16T05:44:44.508Z,16.08
2023-05-16T05:47:12.725Z,15.98
2023-05-16T05:49:40.557Z,16.92
2023-05-16T05:52:08.475Z,14.98
2023-05-16T05:54:36.653Z,14.40
2023-05-16T05:57:04.490Z,13.45
2023-05-16T05:59:34.047Z,12.70
2023-05-16T06:02:02.982Z,12.07
2023-05-16T06:04:30.699Z,12.35
2023-05-16T06:06:58.836Z,12.75
2023-05-16T06:09:26.937Z,12.35
2023-05-16T06:11:54.620Z,13.00
2023-05-16T06:14:22.515Z,12.73
2023-05-16T06:16:51.955Z,12.35
2023-05-16T06:19:19.674Z,13.27
2023-05-16T06:21:47.297Z,13.98
2023-05-16T06:24:16.035Z,13.60
2023-05-16T06:26:46.119Z,11.48
2023-05-16T06:29:14.217Z,11.57
2023-05-16T06:31:42.292Z,10.77
2023-05-16T06:34:11.334Z,10.52
2023-05-16T06:36:39.367Z,9.90
2023-05-16T06:39:07.458Z,10.07
2023-05-16T06:41:35.125Z,9.93
2023-05-16T06:44:03.786Z,9.55
2023-05-16T06:46:31.616Z,10.43
2023-05-16T06:48:59.884Z,9.25
2023-05-16T06:51:29.330Z,9.15
2023-05-16T06:53:57.024Z,10.63
2023-05-16T06:56:24.830Z,10.10
2023-05-16T06:58:53.290Z,9.13
2023-05-16T07:01:21.071Z,9.13
2023-05-16T07:03:48.896Z,8.80
2023-05-16T07:06:17.500Z,9.73
2023-05-16T07:08:46.922Z,8.82
2023-05-16T07:11:14.696Z,8.27
2023-05-16T07:13:42.750Z,8.40
2023-05-16T07:16:10.500Z,8.50
2023-05-16T07:18:38.865Z,8.02
2023-05-16T07:21:06.718Z,7.38
2023-05-16T07:23:35.512Z,9.18
2023-05-16T07:26:04.924Z,7.55
2023-05-16T07:28:32.668Z,10.45
2023-05-16T07:31:01.236Z,7.82
2023-05-16T07:33:28.980Z,7.25
2023-05-16T07:36:07.811Z,7.60
2023-05-16T07:38:42.840Z,24.40
2023-05-16T07:41:11.961Z,7.30
2023-05-16T07:43:40.081Z,7.05
2023-05-16T07:46:07.910Z,6.32
2023-05-16T07:48:35.647Z,6.47
2023-05-16T07:51:03.805Z,8.05
2023-05-16T07:53:31.437Z,6.38
2023-05-16T07:56:00.169Z,6.22
2023-05-16T07:58:30.030Z,6.80
2023-05-16T08:00:57.843Z,7.00
2023-05-16T08:03:26.088Z,15.40
2023-05-16T08:05:54.042Z,5.63
2023-05-16T08:08:21.770Z,5.03
2023-05-16T08:10:49.625Z,4.90
2023-05-16T08:13:17.364Z,4.95
2023-05-16T08:15:46.709Z,3.83
2023-05-16T08:18:16.698Z,4.32
2023-05-16T08:20:44.958Z,4.30
2023-05-16T08:23:12.669Z,3.97
2023-05-16T08:25:40.731Z,3.92
2023-05-16T08:28:08.486Z,4.28
2023-05-16T08:30:36.496Z,4.10
2023-05-16T08:33:07.148Z,3.80
2023-05-16T08:35:36.325Z,3.53
2023-05-16T08:38:04.136Z,3.90
2023-05-16T08:40:32.106Z,4.40
2023-05-16T08:42:59.904Z,3.30
2023-05-16T08:45:28.998Z,3.58
2023-05-16T08:47:57.099Z,3.20
2023-05-16T08:50:27.397Z,3.42
2023-05-16T08:52:55.436Z,3.50
2023-05-16T08:55:25.937Z,3.38
2023-05-16T09:00:23.492Z,3.13
2023-05-16T09:02:52.798Z,3.30
2023-05-16T09:05:20.657Z,3.22
2023-05-16T09:07:49.858Z,2.70
2023-05-16T09:10:17.972Z,2.85
2023-05-16T09:12:45.893Z,2.72
2023-05-16T09:15:14.050Z,2.80
2023-05-16T09:17:45.150Z,2.90
2023-05-16T09:20:15.842Z,2.80
2023-05-16T09:25:30.438Z,2.55
2023-05-16T09:28:01.131Z,2.15
2023-05-16T09:30:30.915Z,2.00
2023-05-16T09:32:59.749Z,2.43
2023-05-16T09:38:00.473Z,2.03
2023-05-16T09:40:28.487Z,2.25
2023-05-16T09:43:05.052Z,2.50
2023-05-16T09:45:34.048Z,2.50
2023-05-16T09:48:05.890Z,2.30
2023-05-16T09:50:35.126Z,2.28
2023-05-16T09:53:04.874Z,2.20
2023-05-16T09:55:33.393Z,2.00
2023-05-16T09:58:01.498Z,2.25
2023-05-16T10:00:32.219Z,1.88
2023-05-16T10:03:04.271Z,3.05
2023-05-16T10:05:33.249Z,2.00
2023-05-16T10:08:04.022Z,2.50
2023-05-16T10:10:38.763Z,2.10
2023-05-16T10:13:09.384Z,2.00
2023-05-16T10:15:39.438Z,2.00
2023-05-16T10:18:11.855Z,2.20
2023-05-16T10:20:43.063Z,1.73
2023-05-16T10:23:14.720Z,2.30
2023-05-16T10:25:46.013Z,2.10
2023-05-16T10:28:14.830Z,2.20
2023-05-16T10:30:44.535Z,2.03
2023-05-16T10:33:13.919Z,2.33
2023-05-16T10:35:42.372Z,1.92
2023-05-16T10:38:12.351Z,2.17
2023-05-16T10:40:41.441Z,2.47
2023-05-16T10:43:10.700Z,2.20
2023-05-16T10:45:43.122Z,2.80
2023-05-16T10:48:13.707Z,2.47
2023-05-16T10:53:19.589Z,2.65
2023-05-16T10:56:07.795Z,2.20
2023-05-16T10:58:48.694Z,2.40
2023-05-16T11:01:17.890Z,2.10
2023-05-16T11:04:14.943Z,5.88
2023-05-16T11:06:50.979Z,8.48
2023-05-16T11:09:27.547Z,2.95
2023-05-16T11:12:01.280Z,2.50
2023-05-16T11:14:38.237Z,4.32
2023-05-16T11:17:10.290Z,2.70
2023-05-16T11:19:42.623Z,2.45
2023-05-16T11:22:29.935Z,2.78
2023-05-16T11:25:00.404Z,2.45
2023-05-16T11:27:31.394Z,2.65
2023-05-16T11:30:13.205Z,2.58
2023-05-16T11:32:43.264Z,3.03
2023-05-16T11:35:14.767Z,2.63
2023-05-16T11:37:43.627Z,2.53
2023-05-16T11:40:13.491Z,2.20
2023-05-16T11:42:43.905Z,2.20
2023-05-16T11:45:16.315Z,2.28
2023-05-16T11:47:45.942Z,2.17
2023-05-16T11:50:15.490Z,2.50
2023-05-16T11:52:45.635Z,2.33
2023-05-16T11:55:19.251Z,2.20
2023-05-16T11:57:54.519Z,11.00
2023-05-16T12:00:26.345Z,2.70
2023-05-16T12:02:56.497Z,2.17
2023-05-16T12:05:28.459Z,2.30
2023-05-16T12:07:57.510Z,2.40
2023-05-16T12:10:25.626Z,2.20
2023-05-16T12:12:54.090Z,2.78
2023-05-16T12:15:23.697Z,2.60
2023-05-16T12:17:52.593Z,3.08
2023-05-16T12:20:20.634Z,2.35
2023-05-16T12:22:48.809Z,2.55
2023-05-16T12:25:23.834Z,2.28
2023-05-16T12:27:52.647Z,3.05
2023-05-16T12:30:22.916Z,2.40
2023-05-16T12:33:00.871Z,2.58
2023-05-16T12:35:33.172Z,2.40
2023-05-16T12:38:01.566Z,2.42
2023-05-16T12:40:30.898Z,2.63
2023-05-16T12:42:59.291Z,2.38
2023-05-16T12:45:31.513Z,2.40
2023-05-16T12:48:07.848Z,2.55
2023-05-16T12:50:37.071Z,2.00
2023-05-16T12:53:04.836Z,2.00
2023-05-16T12:55:32.677Z,2.28
2023-05-16T12:58:02.994Z,2.17
2023-05-16T13:00:31.687Z,1.90
2023-05-16T13:02:59.611Z,2.00
2023-05-16T13:05:28.832Z,2.00
2023-05-16T13:07:56.820Z,2.50
2023-05-16T13:10:26.670Z,2.00
2023-05-16T13:12:58.358Z,2.40
2023-05-16T13:15:27.338Z,2.40
2023-05-16T13:17:55.386Z,1.92
2023-05-16T13:20:23.128Z,2.17
2023-05-16T13:22:52.584Z,2.47
2023-05-16T13:25:20.286Z,1.70
2023-05-16T13:27:50.111Z,2.28
2023-05-16T13:30:18.225Z,1.95
2023-05-16T13:32:46.400Z,2.05
2023-05-16T13:35:14.118Z,2.28
2023-05-16T13:37:41.793Z,1.90
2023-05-16T13:40:11.862Z,1.83
2023-05-16T13:42:39.668Z,1.65
2023-05-16T13:45:08.212Z,1.67
2023-05-16T13:47:37.953Z,1.67
2023-05-16T13:50:09.834Z,2.60
2023-05-16T13:52:38.575Z,1.90
2023-05-16T13:55:07.974Z,1.80
2023-05-16T13:57:37.506Z,1.58
2023-05-16T14:02:43.929Z,2.05
2023-05-16T14:05:12.058Z,1.98
2023-05-16T14:07:39.828Z,1.88
2023-05-16T14:10:10.336Z,1.55
2023-05-16T14:15:09.105Z,1.80
2023-05-16T14:17:37.222Z,2.05
2023-05-16T14:20:08.815Z,1.70
2023-05-16T14:22:36.609Z,2.50
2023-05-16T14:25:05.050Z,1.70
2023-05-16T14:27:32.784Z,1.85
2023-05-16T14:30:01.973Z,1.63
2023-05-16T14:32:30.323Z,1.98
2023-05-16T14:34:58.048Z,2.13
2023-05-16T14:37:25.956Z,1.60
2023-05-16T14:39:54.794Z,1.70
2023-05-16T14:42:22.533Z,1.98
2023-05-16T14:44:50.198Z,1.88
2023-05-16T14:47:19.931Z,1.83
2023-05-16T14:49:47.615Z,2.27
2023-05-16T14:52:15.406Z,1.95
2023-05-16T14:54:43.597Z,1.80
2023-05-16T14:57:11.442Z,1.52
2023-05-16T14:59:39.720Z,1.77
2023-05-16T15:02:08.150Z,1.50
2023-05-16T15:04:37.431Z,1.50
2023-05-16T15:07:06.285Z,1.48
2023-05-16T15:09:33.945Z,1.77
2023-05-16T15:12:02.208Z,2.65
2023-05-16T15:14:29.913Z,1.73
2023-05-16T15:16:57.643Z,1.80
2023-05-16T15:19:25.646Z,1.38
2023-05-16T15:21:54.791Z,1.25
2023-05-16T15:24:22.885Z,1.63
2023-05-16T15:26:50.715Z,1.30
2023-05-16T15:29:20.969Z,1.50
2023-05-16T15:31:48.791Z,1.67
2023-05-16T15:34:16.961Z,1.40
2023-05-16T15:36:44.614Z,1.85
2023-05-16T15:39:13.736Z,1.48
2023-05-16T15:42:01.052Z,1.33
2023-05-16T15:44:29.438Z,1.30
2023-05-16T15:46:58.078Z,1.30
2023-05-16T15:49:26.245Z,1.67
2023-05-16T15:51:54.703Z,1.58
2023-05-16T15:54:24.295Z,1.38
2023-05-16T15:56:51.959Z,1.60
2023-05-16T15:59:19.747Z,1.60
2023-05-16T16:01:47.648Z,1.83
2023-05-16T16:04:15.339Z,1.42
2023-05-16T16:06:43.008Z,1.15
2023-05-16T16:09:11.652Z,1.48
2023-05-16T16:11:41.087Z,1.20
2023-05-16T16:14:10.899Z,1.50
2023-05-16T16:16:41.041Z,1.08
2023-05-16T16:19:09.220Z,1.52
2023-05-16T16:21:36.936Z,1.20
2023-05-16T16:24:05.492Z,1.20
2023-05-16T16:26:33.261Z,1.40
2023-05-16T16:29:02.349Z,1.50
2023-05-16T16:31:30.168Z,1.33
2023-05-16T16:33:58.124Z,1.20
2023-05-16T16:36:25.822Z,1.27
2023-05-16T16:38:53.908Z,1.20
2023-05-16T16:41:21.653Z,1.45
2023-05-16T16:43:49.687Z,1.30
2023-05-16T16:46:18.717Z,1.55
2023-05-16T16:48:46.828Z,1.17
2023-05-16T16:51:14.515Z,1.33
2023-05-16T16:53:42.823Z,1.48
2023-05-16T16:56:10.944Z,1.00
2023-05-16T16:58:38.610Z,1.50
2023-05-16T17:01:07.693Z,1.20
2023-05-16T17:03:36.901Z,1.10
2023-05-16T17:06:05.035Z,1.35
2023-05-16T17:08:33.201Z,1.42
2023-05-16T17:11:05.352Z,1.05
2023-05-16T17:13:37.346Z,1.17
2023-05-16T17:16:05.977Z,0.90
2023-05-16T17:18:34.904Z,14.07
2023-05-16T17:21:04.479Z,2.90
2023-05-16T17:23:32.762Z,1.20
2023-05-16T17:26:00.935Z,1.27
2023-05-16T17:28:30.630Z,1.25
2023-05-16T17:30:58.331Z,1.53
2023-05-16T17:33:26.565Z,1.00
2023-05-16T17:35:54.294Z,1.02
2023-05-16T17:38:24.068Z,1.30
2023-05-16T17:40:52.174Z,2.00
2023-05-16T17:43:20.067Z,1.50
2023-05-16T17:45:48.074Z,1.30
2023-05-16T17:48:17.032Z,1.27
2023-05-16T17:50:44.814Z,1.02
2023-05-16T17:53:12.592Z,1.55
2023-05-16T17:55:42.008Z,1.20
2023-05-16T17:58:09.777Z,1.35
2023-05-16T18:00:38.361Z,1.20
2023-05-16T18:03:06.795Z,1.15
2023-05-16T18:05:34.780Z,1.10
2023-05-16T18:08:06.581Z,1.20
2023-05-16T18:10:50.498Z,3.05
2023-05-16T18:13:21.885Z,22.40
2023-05-16T18:15:50.858Z,11.48
2023-05-16T18:18:19.158Z,2.00
2023-05-16T18:20:47.055Z,1.48
2023-05-16T18:23:15.254Z,1.75
2023-05-16T18:25:43.034Z,1.23
2023-05-16T18:28:11.729Z,1.95
2023-05-16T18:30:41.009Z,1.70
2023-05-16T18:33:09.181Z,1.50
2023-05-16T18:35:37.487Z,1.85
2023-05-16T18:38:05.411Z,1.92
2023-05-16T18:40:33.354Z,1.48
2023-05-16T18:43:01.553Z,1.50
2023-05-16T18:45:30.156Z,1.60
2023-05-16T18:47:59.393Z,1.95
2023-05-16T18:50:28.067Z,1.40
2023-05-16T18:52:57.749Z,1.27
2023-05-16T18:55:25.931Z,1.50
2023-05-16T18:57:54.299Z,1.60
2023-05-16T19:00:22.058Z,1.45
2023-05-16T19:02:50.694Z,1.50
2023-05-16T19:05:20.574Z,1.17
2023-05-16T19:07:48.364Z,1.77
2023-05-16T19:10:16.410Z,1.67
2023-05-16T19:12:46.801Z,10.73
2023-05-16T19:15:14.734Z,3.95
2023-05-16T19:17:43.176Z,2.10
2023-05-16T19:20:13.901Z,1.55
2023-05-16T19:22:43.457Z,1.30
2023-05-16T19:25:11.377Z,1.17
2023-05-16T19:27:39.142Z,1.30
2023-05-16T19:30:09.502Z,1.77
2023-05-16T19:32:37.390Z,1.90
2023-05-16T19:35:06.394Z,2.10
2023-05-16T19:37:34.557Z,1.67
2023-05-16T19:40:03.736Z,1.83
2023-05-16T19:42:31.489Z,1.95
2023-05-16T19:44:59.710Z,1.73
2023-05-16T19:47:28.165Z,1.60
2023-05-16T19:49:55.971Z,1.60
2023-05-16T19:52:25.475Z,1.60
2023-05-16T19:54:53.307Z,1.40
2023-05-16T19:57:22.434Z,1.10
2023-05-16T19:59:50.399Z,1.75
2023-05-16T20:02:20.173Z,1.30
2023-05-16T20:04:50.484Z,1.92
2023-05-16T20:07:18.237Z,1.58
2023-05-16T20:09:46.004Z,1.58
2023-05-16T20:12:14.370Z,1.42
2023-05-16T20:14:43.462Z,1.75
2023-05-16T20:17:11.194Z,1.38
2023-05-16T20:19:44.067Z,1.30
2023-05-16T20:22:12.180Z,1.35
2023-05-16T20:24:39.968Z,1.13
2023-05-16T20:27:08.047Z,1.33
2023-05-16T20:29:35.953Z,1.48
2023-05-16T20:32:05.832Z,1.75
2023-05-16T20:34:33.549Z,1.60
2023-05-16T20:37:01.183Z,1.33
2023-05-16T20:39:29.438Z,1.42
2023-05-16T20:41:57.417Z,1.40
2023-05-16T20:44:25.094Z,1.40
2023-05-16T20:46:53.190Z,1.35
2023-05-16T20:49:22.269Z,1.75
2023-05-16T20:51:49.932Z,1.10
2023-05-16T20:54:18.025Z,1.00
2023-05-16T20:56:45.753Z,1.17
2023-05-16T20:59:13.916Z,1.40
2023-05-16T21:01:41.590Z,1.55
2023-05-16T21:04:09.703Z,1.60
2023-05-16T21:06:38.745Z,1.38
2023-05-16T21:09:06.884Z,1.30
2023-05-16T21:11:34.683Z,9.90
2023-05-16T21:14:03.124Z,4.70
2023-05-16T21:16:31.233Z,2.35
2023-05-16T21:19:01.403Z,1.40
2023-05-16T21:21:29.735Z,1.30
2023-05-16T21:23:58.866Z,1.10
2023-05-16T21:26:26.610Z,1.33
2023-05-16T21:28:55.811Z,1.58
2023-05-16T21:31:24.083Z,1.13
2023-05-16T21:33:52.649Z,1.27
2023-05-16T21:36:21.095Z,1.38
2023-05-16T21:38:48.975Z,1.00
2023-05-16T21:41:18.231Z,1.05
2023-05-16T21:43:46.627Z,1.13
2023-05-16T21:46:14.640Z,1.40
2023-05-16T21:48:42.532Z,1.20
2023-05-16T21:51:11.551Z,1.25
2023-05-16T21:53:39.675Z,1.27
2023-05-16T21:56:07.716Z,1.67
2023-05-16T21:58:36.801Z,1.63
2023-05-16T22:01:04.839Z,1.52
2023-05-16T22:03:32.632Z,1.20
2023-05-16T22:06:01.336Z,1.50
2023-05-16T22:08:29.037Z,1.30
2023-05-16T22:10:57.132Z,1.25
2023-05-16T22:13:24.815Z,1.63
2023-05-16T22:16:03.866Z,1.27
2023-05-16T22:18:32.875Z,1.52
2023-05-16T22:21:01.088Z,1.30
2023-05-16T22:23:28.872Z,1.20
2023-05-16T22:25:57.206Z,1.52
2023-05-16T22:28:24.983Z,1.65
2023-05-16T22:30:54.122Z,1.65
2023-05-16T22:33:23.706Z,1.50
2023-05-16T22:35:51.451Z,1.48
2023-05-16T22:38:19.121Z,1.52
2023-05-16T22:40:47.743Z,1.58
2023-05-16T22:43:15.517Z,1.55
2023-05-16T22:45:43.656Z,1.38
2023-05-16T22:48:12.819Z,1.52
2023-05-16T22:50:40.640Z,1.50
2023-05-16T22:53:08.781Z,1.50
2023-05-16T22:55:36.547Z,1.77
2023-05-16T22:58:04.230Z,1.88
2023-05-16T23:00:32.273Z,1.67
2023-05-16T23:03:00.074Z,1.52
2023-05-16T23:05:29.456Z,1.92
2023-05-16T23:07:57.772Z,1.70
2023-05-16T23:10:25.562Z,1.50
2023-05-16T23:12:53.221Z,1.73
2023-05-16T23:15:21.302Z,1.60
2023-05-16T23:17:49.084Z,1.85
2023-05-16T23:20:17.185Z,1.30
2023-05-16T23:22:46.238Z,3.90
2023-05-16T23:25:13.933Z,2.10
2023-05-16T23:27:42.105Z,1.77
2023-05-16T23:30:11.300Z,2.42
2023-05-16T23:32:40.281Z,1.63
2023-05-16T23:35:08.673Z,2.28
2023-05-16T23:37:36.388Z,1.25
2023-05-16T23:40:06.796Z,2.17
2023-05-16T23:42:34.465Z,2.17
2023-05-16T23:45:02.159Z,1.98
2023-05-16T23:47:30.425Z,2.15
2023-05-16T23:49:58.145Z,2.05
2023-05-16T23:52:25.841Z,2.35
2023-05-16T23:54:53.938Z,2.17
2023-05-16T23:57:22.978Z,2.55
2023-05-16T23:59:50.755Z,2.15
